createdAt,value
2022-08-22T00:00:15.907Z,0.40
2022-08-22T00:02:49.936Z,0.80
2022-08-22T00:02:53.684Z,2.03
2022-08-22T00:02:56.595Z,0.95
2022-08-22T00:03:07.845Z,0.93
2022-08-22T00:03:26.094Z,0.82
2022-08-22T00:06:12.092Z,0.55
2022-08-22T00:09:02.392Z,0.75
2022-08-22T00:11:36.072Z,0.55
2022-08-22T00:14:09.272Z,0.20
2022-08-22T00:17:07.492Z,0.13
2022-08-22T00:20:06.431Z,6.60
2022-08-22T00:22:48.983Z,0.22
2022-08-22T00:25:42.331Z,0.65
2022-08-22T00:28:24.255Z,1.00
2022-08-22T00:31:13.559Z,0.20
2022-08-22T00:33:51.702Z,0.30
2022-08-22T00:36:34.352Z,0.85
2022-08-22T00:39:25.193Z,0.40
2022-08-22T00:42:09.103Z,1.45
2022-08-22T00:44:58.332Z,1.42
2022-08-22T00:47:53.732Z,3.33
2022-08-22T00:50:42.261Z,1.33
2022-08-22T00:53:31.053Z,0.20
2022-08-22T00:56:10.231Z,3.50
2022-08-22T00:59:23.665Z,0.60
2022-08-22T01:02:22.672Z,0.73
2022-08-22T01:05:07.626Z,1.65
2022-08-22T01:07:47.132Z,1.02
2022-08-22T01:10:33.191Z,1.08
2022-08-22T01:13:22.582Z,0.30
2022-08-22T01:16:01.632Z,2.67
2022-08-22T01:19:00.451Z,0.75
2022-08-22T01:21:48.992Z,0.25
2022-08-22T01:24:31.502Z,0.63
2022-08-22T01:27:24.959Z,1.23
2022-08-22T01:29:55.503Z,3.15
2022-08-22T01:32:41.231Z,3.78
2022-08-22T01:35:37.271Z,0.20
2022-08-22T01:38:25.994Z,2.33
2022-08-22T01:40:54.442Z,2.03
2022-08-22T01:44:01.025Z,2.28
2022-08-22T01:46:31.844Z,0.80
2022-08-22T01:49:14.042Z,0.20
2022-08-22T01:52:05.365Z,0.40
2022-08-22T01:54:55.073Z,0.43
2022-08-22T01:57:24.331Z,0.50
2022-08-22T01:59:54.841Z,1.50
2022-08-22T02:02:25.980Z,0.95
2022-08-22T02:05:12.082Z,0.77
2022-08-22T02:07:45.561Z,1.30
2022-08-22T02:10:53.541Z,1.10
2022-08-22T02:13:58.322Z,0.60
2022-08-22T02:16:48.431Z,0.85
2022-08-22T02:19:15.841Z,3.92
2022-08-22T02:22:03.832Z,0.82
2022-08-22T02:24:34.021Z,0.63
2022-08-22T02:27:16.781Z,2.97
2022-08-22T02:29:50.711Z,1.65
2022-08-22T02:32:30.128Z,2.22
2022-08-22T02:35:12.983Z,7.30
2022-08-22T02:38:08.991Z,1.83
2022-08-22T02:40:48.501Z,1.40
2022-08-22T02:43:35.212Z,2.58
2022-08-22T02:46:14.941Z,1.25
2022-08-22T02:48:50.971Z,4.32
2022-08-22T02:51:46.651Z,3.28
2022-08-22T02:54:14.432Z,4.27
2022-08-22T02:56:53.741Z,1.98
2022-08-22T02:59:27.492Z,1.65
2022-08-22T03:01:56.471Z,2.55
2022-08-22T03:04:45.791Z,4.85
2022-08-22T03:07:22.871Z,9.10
2022-08-22T03:10:18.819Z,19.60
2022-08-22T03:13:00.732Z,11.60
2022-08-22T03:15:56.692Z,9.98
2022-08-22T03:18:42.813Z,8.77
2022-08-22T03:21:28.023Z,15.98
2022-08-22T03:24:13.492Z,13.82
2022-08-22T03:27:02.103Z,14.80
2022-08-22T03:29:46.101Z,17.50
2022-08-22T03:32:19.461Z,11.43
2022-08-22T03:34:57.711Z,12.13
2022-08-22T03:37:45.661Z,14.00
2022-08-22T03:40:21.956Z,10.93
2022-08-22T03:43:35.001Z,14.88
2022-08-22T03:46:39.452Z,13.85
2022-08-22T03:49:45.154Z,11.57
2022-08-22T03:53:04.492Z,15.82
2022-08-22T03:55:43.041Z,13.07
2022-08-22T03:58:28.821Z,11.13
2022-08-22T04:01:08.654Z,12.30
2022-08-22T04:03:57.291Z,13.48
2022-08-22T04:06:49.661Z,13.68
2022-08-22T04:10:20.201Z,14.05
2022-08-22T04:13:11.441Z,13.85
2022-08-22T04:16:03.441Z,12.88
2022-08-22T04:18:33.924Z,13.43
2022-08-22T04:21:17.003Z,18.60
2022-08-22T04:24:12.512Z,12.57
2022-08-22T04:26:48.811Z,11.05
2022-08-22T04:29:27.591Z,14.98
2022-08-22T04:32:07.205Z,16.13
2022-08-22T04:34:41.812Z,14.65
2022-08-22T04:37:25.491Z,11.88
2022-08-22T04:40:00.125Z,13.93
2022-08-22T04:42:59.191Z,12.52
2022-08-22T04:45:34.962Z,21.75
2022-08-22T04:48:35.302Z,18.70
2022-08-22T04:51:41.352Z,19.90
2022-08-22T04:54:18.353Z,18.65
2022-08-22T04:56:51.492Z,14.02
2022-08-22T04:59:20.021Z,13.75
2022-08-22T05:01:55.518Z,15.02
2022-08-22T05:04:59.791Z,19.63
2022-08-22T05:07:37.784Z,19.38
2022-08-22T05:10:17.262Z,16.58
2022-08-22T05:12:53.501Z,19.00
2022-08-22T05:15:26.723Z,17.90
2022-08-22T05:18:00.247Z,19.40
2022-08-22T05:20:31.982Z,13.10
2022-08-22T05:23:26.421Z,15.02
2022-08-22T05:25:59.262Z,21.58
2022-08-22T05:28:40.393Z,22.73
2022-08-22T05:31:18.920Z,21.55
2022-08-22T05:33:57.023Z,27.58
2022-08-22T05:36:28.441Z,18.90
2022-08-22T05:39:02.061Z,27.20
2022-08-22T05:41:36.302Z,25.02
2022-08-22T05:44:05.582Z,23.38
2022-08-22T05:46:45.212Z,26.95
2022-08-22T05:49:40.469Z,28.38
2022-08-22T05:52:37.021Z,27.25
2022-08-22T05:55:19.683Z,28.08
2022-08-22T05:57:51.926Z,28.38
2022-08-22T06:00:23.481Z,24.05
2022-08-22T06:03:15.642Z,23.98
2022-08-22T06:05:48.212Z,19.45
2022-08-22T06:08:40.321Z,23.00
2022-08-22T06:11:17.249Z,22.83
2022-08-22T06:13:52.180Z,25.88
2022-08-22T06:16:59.172Z,24.40
2022-08-22T06:19:26.762Z,29.88
2022-08-22T06:21:55.592Z,23.83
2022-08-22T06:24:26.524Z,29.20
2022-08-22T06:27:02.601Z,25.83
2022-08-22T06:29:36.859Z,22.35
2022-08-22T06:32:16.113Z,23.10
2022-08-22T06:34:46.789Z,22.13
2022-08-22T06:37:31.871Z,22.70
2022-08-22T06:40:03.106Z,20.70
2022-08-22T06:42:33.312Z,21.17
2022-08-22T06:45:05.921Z,26.52
2022-08-22T06:47:39.591Z,26.00
2022-08-22T06:50:20.887Z,19.83
2022-08-22T06:52:58.669Z,18.88
2022-08-22T06:55:29.009Z,22.67
2022-08-22T06:58:00.975Z,20.33
2022-08-22T07:00:29.732Z,24.58
2022-08-22T07:03:25.210Z,24.33
2022-08-22T07:05:57.402Z,22.98
2022-08-22T07:08:26.592Z,24.00
2022-08-22T07:10:59.161Z,13.18
2022-08-22T07:13:28.572Z,11.25
2022-08-22T07:16:00.162Z,7.57
2022-08-22T07:18:30.111Z,3.28
2022-08-22T07:21:03.041Z,2.72
2022-08-22T07:23:36.957Z,1.80
2022-08-22T07:26:19.752Z,1.85
2022-08-22T07:29:11.411Z,2.60
2022-08-22T07:32:08.271Z,1.85
2022-08-22T07:35:04.625Z,2.40
2022-08-22T07:37:51.041Z,2.33
2022-08-22T07:40:27.547Z,3.53
2022-08-22T07:43:30.212Z,8.52
2022-08-22T07:46:18.592Z,4.00
2022-08-22T07:49:08.556Z,3.42
2022-08-22T07:51:50.910Z,3.63
2022-08-22T07:54:28.070Z,3.70
2022-08-22T07:57:04.899Z,3.13
2022-08-22T07:59:38.491Z,3.88
2022-08-22T08:02:12.574Z,3.17
2022-08-22T08:04:41.811Z,4.13
2022-08-22T08:07:14.307Z,2.63
2022-08-22T08:10:00.274Z,5.55
2022-08-22T08:15:16.802Z,2.67
2022-08-22T08:17:49.931Z,3.60
2022-08-22T08:20:21.802Z,3.50
2022-08-22T08:22:51.393Z,3.58
2022-08-22T08:25:32.026Z,6.05
2022-08-22T08:28:19.906Z,2.58
2022-08-22T08:31:07.949Z,5.50
2022-08-22T08:33:42.253Z,5.10
2022-08-22T08:36:31.162Z,4.68
2022-08-22T08:39:35.234Z,5.60
2022-08-22T08:43:00.031Z,6.68
2022-08-22T08:45:37.556Z,5.30
2022-08-22T08:48:37.232Z,4.53
2022-08-22T08:51:36.982Z,5.15
2022-08-22T08:54:47.269Z,8.23
2022-08-22T08:57:42.452Z,7.43
2022-08-22T09:00:22.116Z,7.22
2022-08-22T09:03:27.345Z,6.20
2022-08-22T09:06:33.621Z,4.93
2022-08-22T09:09:12.122Z,4.90
2022-08-22T09:12:07.942Z,4.50
2022-08-22T09:17:33.131Z,3.60
2022-08-22T09:20:18.091Z,4.45
2022-08-22T09:26:01.308Z,6.53
2022-08-22T09:28:39.493Z,9.98
2022-08-22T09:31:17.103Z,6.22
2022-08-22T09:34:23.965Z,7.22
2022-08-22T09:37:25.882Z,3.25
2022-08-22T09:43:21.319Z,4.63
2022-08-22T09:46:22.293Z,3.88
2022-08-22T09:49:14.191Z,6.30
2022-08-22T09:52:33.119Z,4.22
2022-08-22T09:55:16.950Z,3.75
2022-08-22T09:57:54.250Z,5.53
2022-08-22T10:00:55.379Z,4.82
2022-08-22T10:03:28.659Z,8.95
2022-08-22T10:06:03.582Z,4.95
2022-08-22T10:08:51.331Z,5.95
2022-08-22T10:11:28.791Z,5.68
2022-08-22T10:14:12.261Z,5.80
2022-08-22T10:16:45.738Z,4.32
2022-08-22T10:19:32.171Z,3.78
2022-08-22T10:22:21.102Z,5.15
2022-08-22T10:25:23.301Z,5.45
2022-08-22T10:27:50.982Z,10.93
2022-08-22T10:30:37.657Z,6.40
2022-08-22T10:33:31.421Z,12.48
2022-08-22T10:36:11.949Z,14.52
2022-08-22T10:38:52.208Z,9.13
2022-08-22T10:41:58.082Z,16.33
2022-08-22T10:44:56.281Z,7.10
2022-08-22T10:47:40.206Z,9.10
2022-08-22T10:50:24.981Z,8.25
2022-08-22T10:53:28.296Z,7.63
2022-08-22T10:56:09.961Z,16.95
2022-08-22T10:59:04.511Z,13.63
2022-08-22T11:01:42.101Z,8.85
2022-08-22T11:04:18.481Z,10.00
2022-08-22T11:07:15.112Z,12.57
2022-08-22T11:09:57.574Z,10.77
2022-08-22T11:12:43.359Z,12.23
2022-08-22T11:15:24.207Z,11.80
2022-08-22T11:18:05.341Z,13.00
2022-08-22T11:20:56.201Z,10.80
2022-08-22T11:23:42.811Z,13.52
2022-08-22T11:26:46.769Z,11.55
2022-08-22T11:29:46.655Z,13.43
2022-08-22T11:32:33.021Z,10.93
2022-08-22T11:35:12.121Z,13.77
2022-08-22T11:38:15.913Z,12.05
2022-08-22T11:40:54.641Z,11.55
2022-08-22T11:43:48.380Z,13.60
2022-08-22T11:46:30.279Z,14.85
2022-08-22T11:49:09.369Z,14.60
2022-08-22T11:52:15.251Z,12.80
2022-08-22T11:55:07.482Z,12.75
2022-08-22T11:57:55.997Z,10.00
2022-08-22T12:00:33.682Z,12.50
2022-08-22T12:03:23.791Z,10.95
2022-08-22T12:06:00.572Z,14.45
2022-08-22T12:08:33.508Z,10.95
2022-08-22T12:11:25.771Z,11.85
2022-08-22T12:14:06.370Z,14.20
2022-08-22T12:16:50.122Z,10.02
2022-08-22T12:19:42.115Z,10.88
2022-08-22T12:22:56.327Z,10.43
2022-08-22T12:25:23.977Z,8.30
2022-08-22T12:28:14.211Z,11.00
2022-08-22T12:31:05.128Z,7.35
2022-08-22T12:33:57.683Z,9.90
2022-08-22T12:36:34.560Z,11.55
2022-08-22T12:39:27.661Z,10.82
2022-08-22T12:42:27.651Z,7.53
2022-08-22T12:45:31.793Z,8.38
2022-08-22T12:48:22.472Z,8.40
2022-08-22T12:51:22.733Z,11.65
2022-08-22T12:54:21.333Z,13.13
2022-08-22T12:57:29.601Z,8.00
2022-08-22T13:00:09.272Z,12.05
2022-08-22T13:02:41.919Z,7.68
2022-08-22T13:05:20.132Z,14.55
2022-08-22T13:08:17.614Z,9.00
2022-08-22T13:10:52.583Z,12.15
2022-08-22T13:13:37.260Z,15.48
2022-08-22T13:16:13.272Z,18.55
2022-08-22T13:18:53.711Z,18.05
2022-08-22T13:21:31.456Z,14.30
2022-08-22T13:24:06.629Z,10.88
2022-08-22T13:27:00.912Z,10.48
2022-08-22T13:29:47.002Z,10.75
2022-08-22T13:32:44.680Z,8.15
2022-08-22T13:35:24.475Z,8.85
2022-08-22T13:37:58.464Z,11.27
2022-08-22T13:40:32.060Z,10.35
2022-08-22T13:43:07.870Z,9.50
2022-08-22T13:45:37.363Z,10.95
2022-08-22T13:48:12.123Z,14.65
2022-08-22T13:51:21.792Z,6.90
2022-08-22T13:54:12.059Z,8.75
2022-08-22T13:56:47.255Z,8.23
2022-08-22T13:59:51.667Z,7.53
2022-08-22T14:02:43.145Z,8.38
2022-08-22T14:05:26.582Z,7.93
2022-08-22T14:08:13.078Z,10.45
2022-08-22T14:11:10.372Z,6.10
2022-08-22T14:13:43.560Z,5.28
2022-08-22T14:16:35.162Z,9.10
2022-08-22T14:19:11.891Z,9.43
2022-08-22T14:21:47.162Z,7.72
2022-08-22T14:24:25.670Z,6.40
2022-08-22T14:27:05.600Z,6.60
2022-08-22T14:29:52.323Z,10.35
2022-08-22T14:32:23.326Z,10.07
2022-08-22T14:35:35.024Z,8.88
2022-08-22T14:38:29.820Z,12.30
2022-08-22T14:41:16.180Z,12.25
2022-08-22T14:43:55.312Z,9.75
2022-08-22T14:46:51.791Z,18.55
2022-08-22T14:49:20.641Z,8.90
2022-08-22T14:52:36.543Z,10.23
2022-08-22T14:55:12.525Z,8.63
2022-08-22T14:57:53.093Z,8.25
2022-08-22T15:00:33.799Z,6.85
2022-08-22T15:03:23.826Z,7.07
2022-08-22T15:05:54.359Z,9.07
2022-08-22T15:08:24.421Z,7.97
2022-08-22T15:11:13.642Z,11.18
2022-08-22T15:14:03.159Z,10.35
2022-08-22T15:16:42.559Z,9.50
2022-08-22T15:19:25.401Z,10.50
2022-08-22T15:22:27.546Z,9.38
2022-08-22T15:25:04.848Z,11.23
2022-08-22T15:27:36.372Z,13.13
2022-08-22T15:30:20.421Z,8.80
2022-08-22T15:32:49.347Z,10.75
2022-08-22T15:35:31.392Z,16.02
2022-08-22T15:38:11.234Z,18.17
2022-08-22T15:40:46.239Z,14.25
2022-08-22T15:43:48.393Z,17.58
2022-08-22T15:46:29.021Z,14.65
2022-08-22T15:49:12.151Z,15.25
2022-08-22T15:51:51.740Z,16.88
2022-08-22T15:54:26.349Z,13.85
2022-08-22T15:56:53.920Z,18.58
2022-08-22T15:59:21.860Z,16.20
2022-08-22T16:02:04.924Z,16.25
2022-08-22T16:04:50.360Z,16.83
2022-08-22T16:07:27.981Z,18.50
2022-08-22T16:09:59.322Z,14.15
2022-08-22T16:12:37.715Z,16.85
2022-08-22T16:15:27.601Z,19.35
2022-08-22T16:17:58.469Z,18.52
2022-08-22T16:20:26.061Z,19.50
2022-08-22T16:22:59.385Z,18.60
2022-08-22T16:25:45.190Z,23.27
2022-08-22T16:28:57.238Z,20.77
2022-08-22T16:31:31.610Z,20.45
2022-08-22T16:34:27.313Z,18.45
2022-08-22T16:36:55.020Z,19.65
2022-08-22T16:39:22.438Z,18.40
2022-08-22T16:42:23.431Z,18.58
2022-08-22T16:44:51.261Z,23.33
2022-08-22T16:47:22.791Z,20.40
2022-08-22T16:49:52.940Z,20.17
2022-08-22T16:52:26.556Z,21.80
2022-08-22T16:55:03.850Z,20.55
2022-08-22T16:57:59.288Z,19.35
2022-08-22T17:00:36.723Z,18.38
2022-08-22T17:03:23.070Z,20.60
2022-08-22T17:06:18.620Z,22.90
2022-08-22T17:09:03.631Z,29.90
2022-08-22T17:11:42.820Z,27.80
2022-08-22T17:14:19.559Z,29.13
2022-08-22T17:17:22.161Z,31.42
2022-08-22T17:19:55.939Z,25.23
2022-08-22T17:22:32.648Z,30.42
2022-08-22T17:25:10.100Z,27.30
2022-08-22T17:27:44.251Z,29.65
2022-08-22T17:30:24.121Z,31.92
2022-08-22T17:33:07.170Z,33.13
2022-08-22T17:35:55.270Z,29.20
2022-08-22T17:38:43.190Z,30.65
2022-08-22T17:41:34.840Z,26.52
2022-08-22T17:44:21.242Z,26.08
2022-08-22T17:47:10.553Z,25.40
2022-08-22T17:49:46.862Z,21.40
2022-08-22T17:52:14.541Z,24.25
2022-08-22T17:55:15.331Z,32.95
2022-08-22T17:58:01.353Z,24.48
2022-08-22T18:00:34.178Z,28.98
2022-08-22T18:03:29.702Z,36.15
2022-08-22T18:06:04.422Z,35.38
2022-08-22T18:12:00.580Z,34.95
2022-08-22T18:14:28.592Z,32.33
2022-08-22T18:16:59.452Z,31.42
2022-08-22T18:19:49.822Z,26.05
2022-08-22T18:22:28.501Z,26.45
2022-08-22T18:25:03.843Z,31.88
2022-08-22T18:27:35.265Z,29.25
2022-08-22T18:30:25.686Z,59.20
2022-08-22T18:33:27.079Z,41.38
2022-08-22T18:36:19.883Z,16.00
2022-08-22T18:39:00.037Z,9.43
2022-08-22T18:41:31.368Z,7.38
2022-08-22T18:44:02.084Z,9.30
2022-08-22T18:46:42.177Z,8.80
2022-08-22T18:49:15.588Z,5.47
2022-08-22T18:51:44.702Z,9.63
2022-08-22T18:54:30.156Z,13.73
2022-08-22T19:00:21.960Z,5.90
2022-08-22T19:03:07.783Z,8.63
2022-08-22T19:06:00.648Z,6.50
2022-08-22T19:08:59.502Z,7.20
2022-08-22T19:11:39.426Z,9.43
2022-08-22T19:14:15.654Z,6.53
2022-08-22T19:16:49.443Z,9.75
2022-08-22T19:19:23.689Z,6.13
2022-08-22T19:22:35.966Z,7.88
2022-08-22T19:25:27.456Z,8.90
2022-08-22T19:28:13.032Z,10.77
2022-08-22T19:30:45.555Z,9.57
2022-08-22T19:33:29.262Z,13.73
2022-08-22T19:36:13.026Z,16.70
2022-08-22T19:38:55.299Z,10.25
2022-08-22T19:41:54.693Z,18.67
2022-08-22T19:44:22.913Z,6.85
2022-08-22T19:47:12.860Z,7.05
2022-08-22T19:49:46.943Z,10.18
2022-08-22T19:52:36.040Z,13.82
2022-08-22T19:55:14.439Z,7.82
2022-08-22T19:57:49.925Z,13.18
2022-08-22T20:00:30.345Z,6.70
2022-08-22T20:03:19.624Z,6.70
2022-08-22T20:06:43.394Z,6.93
2022-08-22T20:09:16.773Z,17.70
2022-08-22T20:12:02.944Z,7.93
2022-08-22T20:14:36.876Z,9.20
2022-08-22T20:17:14.085Z,10.60
2022-08-22T20:20:18.210Z,11.48
2022-08-22T20:23:02.623Z,10.45
2022-08-22T20:25:47.293Z,10.73
2022-08-22T20:28:37.268Z,12.23
2022-08-22T20:31:11.402Z,9.90
2022-08-22T20:33:42.923Z,10.20
2022-08-22T20:36:28.507Z,10.50
2022-08-22T20:39:08.254Z,14.65
2022-08-22T20:41:43.897Z,6.60
2022-08-22T20:44:43.119Z,7.43
2022-08-22T20:47:23.555Z,9.32
2022-08-22T20:49:58.875Z,6.65
2022-08-22T20:52:41.762Z,9.55
2022-08-22T20:55:20.864Z,6.50
2022-08-22T20:58:01.676Z,21.38
2022-08-22T21:00:40.519Z,7.85
2022-08-22T21:03:12.154Z,8.18
2022-08-22T21:05:44.114Z,7.82
2022-08-22T21:08:30.697Z,10.13
2022-08-22T21:11:25.873Z,12.90
2022-08-22T21:13:54.192Z,8.77
2022-08-22T21:16:31.885Z,14.02
2022-08-22T21:19:03.620Z,12.27
2022-08-22T21:21:35.091Z,10.18
2022-08-22T21:24:07.692Z,11.27
2022-08-22T21:26:50.142Z,13.25
2022-08-22T21:29:17.751Z,13.70
2022-08-22T21:32:04.757Z,15.07
2022-08-22T21:34:37.501Z,12.63
2022-08-22T21:37:32.441Z,13.85
2022-08-22T21:40:14.859Z,9.82
2022-08-22T21:42:46.371Z,11.98
2022-08-22T21:45:26.134Z,15.20
2022-08-22T21:47:53.951Z,12.10
2022-08-22T21:50:23.352Z,12.35
2022-08-22T21:52:56.774Z,14.88
2022-08-22T21:55:28.632Z,16.00
2022-08-22T21:58:37.003Z,10.90
2022-08-22T22:01:31.821Z,13.50
2022-08-22T22:04:01.093Z,14.02
2022-08-22T22:06:28.852Z,16.15
2022-08-22T22:08:56.375Z,16.73
2022-08-22T22:11:24.534Z,19.80
2022-08-22T22:13:52.423Z,19.13
2022-08-22T22:16:26.333Z,18.02
2022-08-22T22:18:54.642Z,18.63
2022-08-22T22:21:22.202Z,19.73
2022-08-22T22:23:50.873Z,25.90
2022-08-22T22:26:19.142Z,25.73
2022-08-22T22:28:48.141Z,29.33
2022-08-22T22:31:18.501Z,32.85
2022-08-22T22:33:46.588Z,31.45
2022-08-22T22:36:20.070Z,33.67
2022-08-22T22:38:48.540Z,29.42
2022-08-22T22:41:21.617Z,31.50
2022-08-22T22:43:49.602Z,34.70
2022-08-22T22:46:17.061Z,29.42
2022-08-22T22:48:44.492Z,36.78
2022-08-22T22:51:13.160Z,31.77
2022-08-22T22:53:42.658Z,33.03
2022-08-22T22:56:16.915Z,32.80
2022-08-22T22:58:45.341Z,28.88
2022-08-22T23:01:24.895Z,31.15
2022-08-22T23:03:58.922Z,29.42
2022-08-22T23:06:33.951Z,30.02
2022-08-22T23:09:01.541Z,30.88
2022-08-22T23:11:30.505Z,33.30
2022-08-22T23:13:58.371Z,29.45
2022-08-22T23:16:28.917Z,29.65
2022-08-22T23:18:56.800Z,32.65
2022-08-22T23:21:27.512Z,41.60
2022-08-22T23:23:57.211Z,28.95
2022-08-22T23:26:25.002Z,28.80
2022-08-22T23:28:52.491Z,37.05
2022-08-22T23:31:31.093Z,33.30
2022-08-22T23:34:06.221Z,39.80
2022-08-22T23:36:34.541Z,36.83
2022-08-22T23:39:02.041Z,33.42
2022-08-22T23:41:29.500Z,32.03
2022-08-22T23:43:57.183Z,30.35
2022-08-22T23:46:26.781Z,31.50
2022-08-22T23:48:54.580Z,29.25
2022-08-22T23:51:24.771Z,40.97
2022-08-22T23:53:54.479Z,54.72
2022-08-22T23:56:32.840Z,54.72
2022-08-22T23:59:05.550Z,41.38
